createdAt,value
2023-03-11T00:00:48.688Z,18.43
2023-03-11T00:03:18.970Z,16.90
2023-03-11T00:05:47.720Z,18.87
2023-03-11T00:08:19.687Z,19.30
2023-03-11T00:10:49.603Z,18.77
2023-03-11T00:13:18.079Z,14.10
2023-03-11T00:15:48.524Z,14.83
2023-03-11T00:18:17.140Z,15.87
2023-03-11T00:20:47.139Z,14.87
2023-03-11T00:23:17.251Z,14.57
2023-03-11T00:25:46.543Z,13.77
2023-03-11T00:28:16.181Z,15.53
2023-03-11T00:30:46.047Z,14.70
2023-03-11T00:33:16.154Z,17.53
2023-03-11T00:35:44.953Z,13.00
2023-03-11T00:38:15.406Z,18.40
2023-03-11T00:40:46.752Z,15.23
2023-03-11T00:43:15.284Z,14.37
2023-03-11T00:45:44.019Z,17.07
2023-03-11T00:48:13.596Z,10.83
2023-03-11T00:50:42.684Z,11.27
2023-03-11T00:53:11.680Z,15.60
2023-03-11T00:55:39.822Z,12.07
2023-03-11T00:58:12.902Z,15.67
2023-03-11T01:00:44.924Z,15.30
2023-03-11T01:03:13.224Z,15.00
2023-03-11T01:05:41.450Z,17.23
2023-03-11T01:08:09.570Z,16.43
2023-03-11T01:10:38.416Z,18.90
2023-03-11T01:13:06.632Z,19.17
2023-03-11T01:15:38.102Z,15.03
2023-03-11T01:18:07.889Z,15.53
2023-03-11T01:20:37.105Z,18.67
2023-03-11T01:23:06.902Z,11.33
2023-03-11T01:25:36.330Z,14.63
2023-03-11T01:28:04.705Z,15.70
2023-03-11T01:30:32.956Z,14.00
2023-03-11T01:33:02.792Z,15.17
2023-03-11T01:35:32.447Z,16.53
2023-03-11T01:38:00.836Z,17.00
2023-03-11T01:40:33.450Z,11.17
2023-03-11T01:43:07.423Z,12.67
2023-03-11T01:45:43.197Z,9.02
2023-03-11T01:48:14.816Z,13.03
2023-03-11T01:50:46.239Z,16.57
2023-03-11T01:53:16.727Z,14.73
2023-03-11T01:55:46.746Z,14.90
2023-03-11T01:58:19.070Z,14.10
2023-03-11T02:00:48.153Z,16.10
2023-03-11T02:03:25.176Z,12.77
2023-03-11T02:05:55.129Z,16.97
2023-03-11T02:08:23.422Z,17.77
2023-03-11T02:10:54.146Z,18.10
2023-03-11T02:13:22.552Z,11.77
2023-03-11T02:15:50.992Z,18.10
2023-03-11T02:18:22.173Z,21.60
2023-03-11T02:21:00.120Z,17.20
2023-03-11T02:23:34.922Z,20.40
2023-03-11T02:26:11.274Z,16.60
2023-03-11T02:28:42.007Z,16.97
2023-03-11T02:31:11.225Z,18.23
2023-03-11T02:33:40.040Z,16.80
2023-03-11T02:36:29.534Z,16.10
2023-03-11T02:38:58.324Z,13.65
2023-03-11T02:41:27.806Z,14.30
2023-03-11T02:43:57.976Z,14.10
2023-03-11T02:46:27.171Z,13.07
2023-03-11T02:48:57.363Z,10.70
2023-03-11T02:51:25.519Z,10.90
2023-03-11T02:53:57.676Z,10.00
2023-03-11T02:56:26.487Z,10.93
2023-03-11T02:58:54.671Z,9.43
2023-03-11T03:01:24.451Z,9.48
2023-03-11T03:03:52.911Z,9.03
2023-03-11T03:06:21.978Z,5.70
2023-03-11T03:08:52.525Z,8.93
2023-03-11T03:11:20.878Z,5.70
2023-03-11T03:13:49.915Z,6.40
2023-03-11T03:16:18.159Z,22.73
2023-03-11T03:18:47.658Z,5.07
2023-03-11T03:21:15.971Z,3.67
2023-03-11T03:23:44.101Z,4.77
2023-03-11T03:26:14.686Z,2.97
2023-03-11T03:28:44.914Z,2.80
2023-03-11T03:31:13.374Z,1.30
2023-03-11T03:33:43.435Z,2.47
2023-03-11T03:36:15.672Z,1.50
2023-03-11T03:38:54.821Z,1.83
2023-03-11T03:41:23.910Z,1.10
2023-03-11T03:43:54.878Z,1.83
2023-03-11T03:46:23.873Z,1.97
2023-03-11T03:48:54.653Z,1.30
2023-03-11T03:51:24.341Z,1.67
2023-03-11T03:54:21.817Z,1.40
2023-03-11T03:56:50.341Z,1.97
2023-03-11T03:59:18.635Z,1.50
2023-03-11T04:01:51.879Z,1.67
2023-03-11T04:04:21.856Z,1.90
2023-03-11T04:06:51.722Z,1.38
2023-03-11T04:09:20.958Z,2.47
2023-03-11T04:11:49.480Z,1.97
2023-03-11T04:14:19.193Z,1.73
2023-03-11T04:16:54.547Z,1.60
2023-03-11T04:19:22.954Z,2.03
2023-03-11T04:21:52.745Z,1.00
2023-03-11T04:24:22.795Z,2.50
2023-03-11T04:26:51.180Z,1.08
2023-03-11T04:29:20.255Z,2.27
2023-03-11T04:31:51.857Z,2.80
2023-03-11T04:34:20.272Z,2.13
2023-03-11T04:36:48.551Z,1.60
2023-03-11T04:39:19.888Z,2.93
2023-03-11T04:41:48.795Z,2.90
2023-03-11T04:44:21.717Z,2.37
2023-03-11T04:46:51.487Z,2.20
2023-03-11T04:49:19.777Z,1.80
2023-03-11T04:51:48.914Z,1.30
2023-03-11T04:54:22.232Z,1.97
2023-03-11T04:56:50.830Z,1.80
2023-03-11T04:59:19.052Z,1.90
2023-03-11T05:01:49.367Z,1.30
2023-03-11T05:04:18.316Z,1.50
2023-03-11T05:06:46.636Z,1.40
2023-03-11T05:09:15.606Z,1.17
2023-03-11T05:11:45.162Z,1.60
2023-03-11T05:14:18.661Z,1.90
2023-03-11T05:16:46.871Z,2.75
2023-03-11T05:19:35.678Z,1.55
2023-03-11T05:22:13.066Z,1.60
2023-03-11T05:24:41.319Z,1.60
2023-03-11T05:27:11.063Z,2.40
2023-03-11T05:29:40.268Z,2.47
2023-03-11T05:32:12.203Z,2.30
2023-03-11T05:34:40.946Z,2.60
2023-03-11T05:37:09.926Z,1.90
2023-03-11T05:39:38.244Z,1.87
2023-03-11T05:42:07.312Z,3.00
2023-03-11T05:44:37.742Z,3.10
2023-03-11T05:47:06.390Z,2.20
2023-03-11T05:49:35.537Z,1.77
2023-03-11T05:52:04.090Z,1.70
2023-03-11T05:54:33.577Z,2.03
2023-03-11T05:57:02.141Z,2.47
2023-03-11T05:59:32.469Z,1.80
2023-03-11T06:02:05.665Z,1.83
2023-03-11T06:04:34.000Z,1.60
2023-03-11T06:07:03.806Z,2.03
2023-03-11T06:09:36.984Z,2.37
2023-03-11T06:12:07.326Z,2.00
2023-03-11T06:15:14.490Z,1.77
2023-03-11T06:17:45.352Z,2.20
2023-03-11T06:20:14.267Z,2.00
2023-03-11T06:22:43.349Z,3.30
2023-03-11T06:25:12.857Z,3.63
2023-03-11T06:27:44.511Z,2.60
2023-03-11T06:30:14.379Z,2.10
2023-03-11T06:32:51.556Z,2.37
2023-03-11T06:35:19.853Z,1.83
2023-03-11T06:37:48.027Z,1.83
2023-03-11T06:40:16.292Z,1.50
2023-03-11T06:42:46.911Z,1.80
2023-03-11T06:45:16.120Z,1.85
2023-03-11T06:47:45.551Z,2.88
2023-03-11T06:50:15.220Z,2.67
2023-03-11T06:52:43.450Z,1.67
2023-03-11T06:55:11.692Z,3.00
2023-03-11T06:57:39.810Z,2.57
2023-03-11T07:00:12.859Z,2.72
2023-03-11T07:02:44.335Z,5.50
2023-03-11T07:05:15.246Z,2.60
2023-03-11T07:07:43.645Z,2.83
2023-03-11T07:10:12.816Z,4.20
2023-03-11T07:12:41.121Z,4.00
2023-03-11T07:15:11.085Z,2.57
2023-03-11T07:17:40.321Z,4.17
2023-03-11T07:20:10.358Z,2.40
2023-03-11T07:22:39.856Z,3.63
2023-03-11T07:25:08.570Z,2.10
2023-03-11T07:27:36.802Z,2.63
2023-03-11T07:30:05.572Z,3.33
2023-03-11T07:32:33.718Z,2.17
2023-03-11T07:35:01.900Z,2.83
2023-03-11T07:37:30.115Z,2.83
2023-03-11T07:39:59.598Z,2.70
2023-03-11T07:42:27.784Z,2.58
2023-03-11T07:44:56.006Z,3.17
2023-03-11T07:47:25.000Z,2.27
2023-03-11T07:49:53.137Z,6.40
2023-03-11T07:52:21.289Z,4.77
2023-03-11T07:54:49.397Z,2.50
2023-03-11T07:57:18.882Z,3.67
2023-03-11T07:59:47.008Z,2.75
2023-03-11T08:02:15.743Z,2.53
2023-03-11T08:04:43.895Z,2.17
2023-03-11T08:07:12.024Z,2.00
2023-03-11T08:09:40.248Z,2.40
2023-03-11T08:12:09.324Z,4.40
2023-03-11T08:14:39.621Z,2.70
2023-03-11T08:17:08.032Z,1.80
2023-03-11T08:19:36.496Z,2.10
2023-03-11T08:22:05.295Z,2.47
2023-03-11T08:24:34.603Z,1.98
2023-03-11T08:27:02.934Z,1.70
2023-03-11T08:29:31.068Z,2.73
2023-03-11T08:32:00.551Z,3.80
2023-03-11T08:34:28.769Z,2.87
2023-03-11T08:36:57.251Z,2.97
2023-03-11T08:39:25.366Z,2.83
2023-03-11T08:41:53.649Z,2.33
2023-03-11T08:44:21.938Z,2.88
2023-03-11T08:46:50.283Z,1.95
2023-03-11T08:49:19.978Z,3.40
2023-03-11T08:51:48.135Z,4.00
2023-03-11T08:54:16.316Z,2.33
2023-03-11T08:56:44.604Z,2.20
2023-03-11T08:59:12.780Z,3.03
2023-03-11T09:01:42.375Z,2.53
2023-03-11T09:04:12.013Z,1.97
2023-03-11T09:06:44.351Z,2.40
2023-03-11T09:09:13.173Z,3.10
2023-03-11T09:11:42.146Z,4.53
2023-03-11T09:14:10.322Z,2.20
2023-03-11T09:16:38.584Z,2.90
2023-03-11T09:19:07.606Z,2.57
2023-03-11T09:21:36.391Z,2.73
2023-03-11T09:24:07.085Z,3.97
2023-03-11T09:26:35.236Z,8.10
2023-03-11T09:29:03.419Z,3.67
2023-03-11T09:31:31.610Z,2.83
2023-03-11T09:33:59.786Z,5.47
2023-03-11T09:36:27.935Z,2.53
2023-03-11T09:38:56.171Z,4.93
2023-03-11T09:41:38.201Z,6.50
2023-03-11T09:44:17.178Z,4.00
2023-03-11T09:47:17.947Z,2.97
2023-03-11T09:50:07.916Z,4.10
2023-03-11T09:52:41.529Z,3.03
2023-03-11T09:55:25.402Z,4.37
2023-03-11T09:57:56.272Z,3.17
2023-03-11T10:00:25.619Z,3.60
2023-03-11T10:02:54.146Z,3.00
2023-03-11T10:05:24.774Z,3.10
2023-03-11T10:07:59.102Z,3.00
2023-03-11T10:10:30.652Z,2.43
2023-03-11T10:13:10.183Z,2.70
2023-03-11T10:15:49.089Z,2.83
2023-03-11T10:18:31.538Z,3.00
2023-03-11T10:21:07.343Z,3.97
2023-03-11T10:23:48.756Z,2.88
2023-03-11T10:26:24.041Z,2.47
2023-03-11T10:28:57.145Z,3.40
2023-03-11T10:31:29.316Z,1.90
2023-03-11T10:34:00.958Z,1.60
2023-03-11T10:36:36.666Z,3.57
2023-03-11T10:39:05.825Z,3.08
2023-03-11T10:41:43.268Z,2.17
2023-03-11T10:44:16.324Z,1.50
2023-03-11T10:46:45.189Z,2.50
2023-03-11T10:49:15.249Z,3.77
2023-03-11T10:51:46.790Z,5.53
2023-03-11T10:54:25.046Z,2.10
2023-03-11T10:56:56.785Z,3.60
2023-03-11T10:59:29.719Z,3.37
2023-03-11T11:02:00.216Z,3.10
2023-03-11T11:04:31.381Z,3.00
2023-03-11T11:07:00.586Z,3.50
2023-03-11T11:09:31.068Z,2.13
2023-03-11T11:12:05.669Z,2.30
2023-03-11T11:14:46.235Z,1.77
2023-03-11T11:17:25.154Z,2.73
2023-03-11T11:19:55.122Z,1.90
2023-03-11T11:22:24.325Z,2.28
2023-03-11T11:24:55.030Z,1.77
2023-03-11T11:27:24.981Z,1.65
2023-03-11T11:30:15.712Z,2.23
2023-03-11T11:32:44.072Z,1.33
2023-03-11T11:35:13.853Z,1.37
2023-03-11T11:37:44.810Z,2.37
2023-03-11T11:40:25.748Z,1.85
2023-03-11T11:42:57.747Z,1.40
2023-03-11T11:45:35.864Z,1.67
2023-03-11T11:48:13.938Z,1.73
2023-03-11T11:50:45.347Z,1.53
2023-03-11T11:53:28.928Z,1.80
2023-03-11T11:55:57.210Z,1.90
2023-03-11T11:58:25.433Z,1.77
2023-03-11T12:01:08.251Z,1.30
2023-03-11T12:04:04.372Z,0.80
2023-03-11T12:06:39.838Z,1.57
2023-03-11T12:09:24.131Z,2.50
2023-03-11T12:11:58.548Z,1.95
2023-03-11T12:14:32.356Z,1.77
2023-03-11T12:17:04.470Z,5.73
2023-03-11T12:19:38.494Z,3.60
2023-03-11T12:22:26.405Z,1.40
2023-03-11T12:25:07.222Z,1.88
2023-03-11T12:27:42.634Z,1.50
2023-03-11T12:30:15.807Z,1.60
2023-03-11T12:32:50.414Z,0.90
2023-03-11T12:35:24.133Z,1.70
2023-03-11T12:38:08.417Z,2.20
2023-03-11T12:41:00.079Z,4.63
2023-03-11T12:44:00.575Z,1.20
2023-03-11T12:47:11.423Z,2.10
2023-03-11T12:49:43.263Z,2.10
2023-03-11T12:52:26.450Z,1.40
2023-03-11T12:55:26.202Z,2.40
2023-03-11T12:58:20.071Z,1.13
2023-03-11T13:01:02.060Z,1.57
2023-03-11T13:03:51.903Z,1.20
2023-03-11T13:06:43.760Z,2.90
2023-03-11T13:09:15.464Z,1.20
2023-03-11T13:11:46.696Z,3.60
2023-03-11T13:14:36.519Z,2.33
2023-03-11T13:17:27.330Z,3.57
2023-03-11T13:19:56.892Z,1.70
2023-03-11T13:22:58.092Z,1.93
2023-03-11T13:25:33.672Z,2.20
2023-03-11T13:28:19.937Z,2.40
2023-03-11T13:30:57.336Z,2.67
2023-03-11T13:33:38.110Z,4.95
2023-03-11T13:36:19.912Z,2.27
2023-03-11T13:39:16.639Z,7.57
2023-03-11T13:41:45.814Z,4.83
2023-03-11T13:44:23.324Z,2.10
2023-03-11T13:46:54.329Z,3.17
2023-03-11T13:49:31.114Z,4.40
2023-03-11T13:52:01.177Z,6.93
2023-03-11T13:54:49.293Z,3.77
2023-03-11T13:57:25.952Z,4.30
2023-03-11T13:59:55.089Z,5.27
2023-03-11T14:02:25.673Z,7.35
2023-03-11T14:04:57.491Z,6.10
2023-03-11T14:07:28.841Z,5.67
2023-03-11T14:10:27.673Z,8.37
2023-03-11T14:13:23.490Z,6.60
2023-03-11T14:15:55.575Z,5.17
2023-03-11T14:18:35.906Z,7.90
2023-03-11T14:21:06.060Z,5.63
2023-03-11T14:23:37.252Z,5.17
2023-03-11T14:26:10.261Z,6.80
2023-03-11T14:28:45.105Z,3.07
2023-03-11T14:31:25.897Z,5.20
2023-03-11T14:34:04.026Z,6.00
2023-03-11T14:36:40.505Z,6.30
2023-03-11T14:39:28.529Z,6.37
2023-03-11T14:42:03.842Z,5.95
2023-03-11T14:44:35.137Z,5.00
2023-03-11T14:47:10.811Z,4.90
2023-03-11T14:49:40.304Z,5.40
2023-03-11T14:52:15.084Z,5.20
2023-03-11T14:54:44.853Z,9.93
2023-03-11T14:57:22.827Z,4.78
2023-03-11T14:59:53.921Z,6.43
2023-03-11T15:02:42.124Z,7.17
2023-03-11T15:05:18.642Z,5.40
2023-03-11T15:07:47.199Z,4.53
2023-03-11T15:10:15.886Z,5.00
2023-03-11T15:12:45.858Z,4.90
2023-03-11T15:15:28.441Z,5.25
2023-03-11T15:17:58.384Z,4.40
2023-03-11T15:20:29.433Z,4.13
2023-03-11T15:23:00.949Z,3.97
2023-03-11T15:25:33.177Z,4.20
2023-03-11T15:28:22.263Z,5.93
2023-03-11T15:30:50.749Z,3.87
2023-03-11T15:33:23.126Z,3.90
2023-03-11T15:35:51.287Z,3.83
2023-03-11T15:38:23.585Z,4.60
2023-03-11T15:40:54.461Z,5.63
2023-03-11T15:43:28.267Z,4.70
2023-03-11T15:45:58.699Z,3.27
2023-03-11T15:48:27.911Z,3.80
2023-03-11T15:50:58.542Z,3.73
2023-03-11T15:53:28.275Z,3.33
2023-03-11T15:56:06.928Z,5.63
2023-03-11T15:58:38.927Z,2.80
2023-03-11T16:01:07.901Z,5.10
2023-03-11T16:03:36.518Z,3.65
2023-03-11T16:06:04.930Z,4.17
2023-03-11T16:08:34.573Z,3.58
2023-03-11T16:11:02.701Z,4.43
2023-03-11T16:13:30.850Z,3.30
2023-03-11T16:16:01.515Z,4.13
2023-03-11T16:18:30.468Z,3.17
2023-03-11T16:20:58.674Z,4.73
2023-03-11T16:23:36.123Z,3.30
2023-03-11T16:26:11.996Z,4.33
2023-03-11T16:28:40.726Z,4.47
2023-03-11T16:31:10.379Z,2.93
2023-03-11T16:33:38.559Z,3.37
2023-03-11T16:36:07.331Z,4.63
2023-03-11T16:38:44.364Z,7.40
2023-03-11T16:41:12.962Z,6.67
2023-03-11T16:43:41.224Z,3.63
2023-03-11T16:46:10.816Z,2.90
2023-03-11T16:48:38.949Z,4.22
2023-03-11T16:51:07.111Z,2.90
2023-03-11T16:53:35.310Z,3.60
2023-03-11T16:56:03.483Z,2.97
2023-03-11T16:58:31.695Z,6.17
2023-03-11T17:01:00.020Z,3.47
2023-03-11T17:03:41.050Z,4.83
2023-03-11T17:06:10.605Z,2.57
2023-03-11T17:08:38.726Z,5.27
2023-03-11T17:11:06.900Z,3.40
2023-03-11T17:13:35.039Z,4.07
2023-03-11T17:16:04.231Z,3.73
2023-03-11T17:18:33.928Z,3.42
2023-03-11T17:21:06.744Z,4.17
2023-03-11T17:23:34.876Z,3.15
2023-03-11T17:26:03.242Z,3.17
2023-03-11T17:28:31.387Z,3.25
2023-03-11T17:31:00.048Z,3.60
2023-03-11T17:33:28.246Z,3.27
2023-03-11T17:36:03.129Z,4.40
2023-03-11T17:38:31.701Z,3.00
2023-03-11T17:41:00.167Z,3.65
2023-03-11T17:43:28.359Z,3.67
2023-03-11T17:45:58.586Z,4.53
2023-03-11T17:48:27.947Z,6.70
2023-03-11T17:50:56.072Z,4.30
2023-03-11T17:53:25.622Z,4.23
2023-03-11T17:55:54.095Z,5.17
2023-03-11T17:58:22.231Z,4.43
2023-03-11T18:00:50.667Z,4.07
2023-03-11T18:03:18.777Z,5.40
2023-03-11T18:05:55.715Z,4.10
2023-03-11T18:08:25.274Z,3.17
2023-03-11T18:10:55.024Z,12.80
2023-03-11T18:13:23.166Z,5.33
2023-03-11T18:15:57.903Z,3.97
2023-03-11T18:18:26.230Z,4.03
2023-03-11T18:20:54.467Z,3.37
2023-03-11T18:23:22.641Z,4.73
2023-03-11T18:25:53.318Z,6.03
2023-03-11T18:28:21.545Z,2.33
2023-03-11T18:30:49.708Z,3.33
2023-03-11T18:33:17.903Z,4.37
2023-03-11T18:35:46.085Z,3.30
2023-03-11T18:38:14.214Z,3.60
2023-03-11T18:40:42.323Z,3.00
2023-03-11T18:43:13.651Z,3.03
2023-03-11T18:45:42.076Z,3.47
2023-03-11T18:48:10.211Z,3.17
2023-03-11T18:50:38.388Z,3.33
2023-03-11T18:53:06.559Z,5.80
2023-03-11T18:55:35.785Z,2.40
2023-03-11T18:58:09.257Z,2.67
2023-03-11T19:00:38.772Z,3.97
2023-03-11T19:03:07.237Z,3.60
2023-03-11T19:05:35.368Z,2.47
2023-03-11T19:08:03.727Z,3.17
2023-03-11T19:10:32.053Z,2.33
2023-03-11T19:13:00.244Z,3.40
2023-03-11T19:15:28.413Z,2.50
2023-03-11T19:18:06.571Z,2.70
2023-03-11T19:20:35.155Z,3.20
2023-03-11T19:23:03.345Z,3.90
2023-03-11T19:25:31.699Z,3.40
2023-03-11T19:27:59.806Z,9.67
2023-03-11T19:30:28.754Z,3.03
2023-03-11T19:32:58.290Z,6.23
2023-03-11T19:35:26.446Z,4.83
2023-03-11T19:37:57.359Z,5.93
2023-03-11T19:40:29.695Z,6.17
2023-03-11T19:42:58.996Z,3.97
2023-03-11T19:45:29.532Z,3.27
2023-03-11T19:47:59.989Z,2.67
2023-03-11T19:50:28.137Z,2.87
2023-03-11T19:52:56.256Z,2.37
2023-03-11T19:55:24.405Z,2.20
2023-03-11T19:57:52.574Z,2.78
2023-03-11T20:00:21.489Z,3.37
2023-03-11T20:02:49.677Z,4.38
2023-03-11T20:05:19.232Z,3.37
2023-03-11T20:07:47.443Z,3.70
2023-03-11T20:10:17.544Z,3.13
2023-03-11T20:13:01.203Z,2.23
2023-03-11T20:15:29.974Z,2.33
2023-03-11T20:17:58.614Z,3.00
2023-03-11T20:20:28.330Z,3.07
2023-03-11T20:22:56.870Z,2.10
2023-03-11T20:25:25.769Z,2.27
2023-03-11T20:27:54.415Z,2.80
2023-03-11T20:30:24.332Z,2.27
2023-03-11T20:32:52.838Z,5.13
2023-03-11T20:35:22.145Z,3.60
2023-03-11T20:37:51.672Z,3.07
2023-03-11T20:40:20.299Z,3.60
2023-03-11T20:42:48.524Z,2.20
2023-03-11T20:45:21.503Z,3.33
2023-03-11T20:47:50.058Z,2.10
2023-03-11T20:50:18.543Z,2.77
2023-03-11T20:52:46.875Z,6.70
2023-03-11T20:55:16.652Z,2.80
2023-03-11T20:57:44.809Z,2.83
2023-03-11T21:00:14.669Z,2.30
2023-03-11T21:02:43.945Z,2.20
2023-03-11T21:05:13.693Z,3.73
2023-03-11T21:07:41.976Z,5.17
2023-03-11T21:10:12.855Z,7.27
2023-03-11T21:12:42.674Z,4.90
2023-03-11T21:15:12.131Z,2.90
2023-03-11T21:17:40.283Z,3.70
2023-03-11T21:20:09.153Z,6.47
2023-03-11T21:22:37.389Z,3.78
2023-03-11T21:25:08.472Z,2.70
2023-03-11T21:27:36.965Z,3.23
2023-03-11T21:30:12.030Z,4.27
2023-03-11T21:32:40.550Z,2.83
2023-03-11T21:35:09.624Z,3.40
2023-03-11T21:37:38.030Z,5.00
2023-03-11T21:40:07.748Z,9.57
2023-03-11T21:42:35.998Z,2.87
2023-03-11T21:45:06.037Z,2.80
2023-03-11T21:47:34.238Z,5.57
2023-03-11T21:50:02.522Z,3.40
2023-03-11T21:52:30.740Z,2.63
2023-03-11T21:54:59.149Z,2.20
2023-03-11T21:57:27.294Z,3.20
2023-03-11T21:59:55.561Z,2.80
2023-03-11T22:02:25.358Z,4.53
2023-03-11T22:04:53.700Z,2.40
2023-03-11T22:07:22.062Z,3.33
2023-03-11T22:09:51.920Z,4.53
2023-03-11T22:12:20.180Z,2.50
2023-03-11T22:14:48.784Z,2.57
2023-03-11T22:17:17.158Z,2.77
2023-03-11T22:19:46.926Z,4.40
2023-03-11T22:22:15.195Z,4.90
2023-03-11T22:24:43.387Z,2.00
2023-03-11T22:27:11.512Z,1.95
2023-03-11T22:29:39.737Z,1.50
2023-03-11T22:32:07.906Z,1.57
2023-03-11T22:34:36.208Z,1.57
2023-03-11T22:37:06.105Z,5.90
2023-03-11T22:39:34.412Z,2.13
2023-03-11T22:42:02.813Z,4.00
2023-03-11T22:44:31.003Z,4.53
2023-03-11T22:46:59.301Z,3.63
2023-03-11T22:49:27.484Z,1.97
2023-03-11T22:51:55.605Z,16.83
2023-03-11T22:54:25.114Z,2.60
2023-03-11T22:56:53.608Z,2.53
2023-03-11T22:59:21.767Z,5.13
2023-03-11T23:01:49.911Z,1.73
2023-03-11T23:04:18.182Z,4.80
2023-03-11T23:06:47.458Z,2.63
2023-03-11T23:09:16.445Z,7.33
2023-03-11T23:11:45.908Z,6.28
2023-03-11T23:14:14.086Z,4.87
2023-03-11T23:16:42.463Z,1.93
2023-03-11T23:19:10.676Z,2.63
2023-03-11T23:21:39.784Z,1.63
2023-03-11T23:24:10.256Z,2.00
2023-03-11T23:26:39.074Z,1.83
2023-03-11T23:29:08.575Z,2.47
2023-03-11T23:31:36.935Z,3.23
2023-03-11T23:34:06.519Z,2.20
2023-03-11T23:36:34.692Z,1.57
2023-03-11T23:39:02.839Z,2.37
2023-03-11T23:41:31.177Z,1.95
2023-03-11T23:43:59.433Z,3.93
2023-03-11T23:46:28.994Z,2.87
2023-03-11T23:48:57.198Z,1.93
2023-03-11T23:51:25.348Z,2.60
2023-03-11T23:53:53.513Z,2.47
2023-03-11T23:56:21.825Z,1.87
2023-03-11T23:58:50.216Z,2.87
